sensor_id;sensor_type;location;lat;lon;timestamp;temperature;humidity
48734;DHT22;34530;52.084;5.146;2022-07-10T00:00:29;24.30;46.70
48734;DHT22;34530;52.084;5.146;2022-07-10T00:02:56;24.30;46.70
48734;DHT22;34530;52.084;5.146;2022-07-10T00:05:23;24.30;46.70
48734;DHT22;34530;52.084;5.146;2022-07-10T00:07:49;24.30;46.80
48734;DHT22;34530;52.084;5.146;2022-07-10T00:10:16;24.30;46.80
48734;DHT22;34530;52.084;5.146;2022-07-10T00:12:43;24.30;46.80
48734;DHT22;34530;52.084;5.146;2022-07-10T00:15:09;24.30;46.80
48734;DHT22;34530;52.084;5.146;2022-07-10T00:17:35;24.30;46.80
48734;DHT22;34530;52.084;5.146;2022-07-10T00:20:02;24.30;46.80
48734;DHT22;34530;52.084;5.146;2022-07-10T00:22:28;24.30;46.80
48734;DHT22;34530;52.084;5.146;2022-07-10T00:24:54;24.30;46.90
48734;DHT22;34530;52.084;5.146;2022-07-10T00:27:19;24.30;46.90
48734;DHT22;34530;52.084;5.146;2022-07-10T00:29:45;24.30;47.00
48734;DHT22;34530;52.084;5.146;2022-07-10T00:32:11;24.30;47.00
48734;DHT22;34530;52.084;5.146;2022-07-10T00:34:37;24.30;47.00
48734;DHT22;34530;52.084;5.146;2022-07-10T00:37:04;24.30;47.00
48734;DHT22;34530;52.084;5.146;2022-07-10T00:39:30;24.30;47.00
48734;DHT22;34530;52.084;5.146;2022-07-10T00:42:11;24.30;47.00
48734;DHT22;34530;52.084;5.146;2022-07-10T00:44:39;24.30;47.00
48734;DHT22;34530;52.084;5.146;2022-07-10T00:47:06;24.20;46.90
48734;DHT22;34530;52.084;5.146;2022-07-10T00:49:33;24.20;47.00
48734;DHT22;34530;52.084;5.146;2022-07-10T00:52:02;24.20;47.00
48734;DHT22;34530;52.084;5.146;2022-07-10T00:54:29;24.20;47.00
48734;DHT22;34530;52.084;5.146;2022-07-10T00:56:56;24.20;47.00
48734;DHT22;34530;52.084;5.146;2022-07-10T00:59:22;24.20;47.10
48734;DHT22;34530;52.084;5.146;2022-07-10T01:01:49;24.20;47.10
48734;DHT22;34530;52.084;5.146;2022-07-10T01:04:15;24.20;47.10
48734;DHT22;34530;52.084;5.146;2022-07-10T01:06:41;24.20;47.10
48734;DHT22;34530;52.084;5.146;2022-07-10T01:09:07;24.20;47.20
48734;DHT22;34530;52.084;5.146;2022-07-10T01:11:33;24.20;47.20
48734;DHT22;34530;52.084;5.146;2022-07-10T01:14:00;24.20;47.20
48734;DHT22;34530;52.084;5.146;2022-07-10T01:16:26;24.20;47.20
48734;DHT22;34530;52.084;5.146;2022-07-10T01:18:52;24.20;47.30
48734;DHT22;34530;52.084;5.146;2022-07-10T01:21:28;24.10;47.30
48734;DHT22;34530;52.084;5.146;2022-07-10T01:23:55;24.20;47.30
48734;DHT22;34530;52.084;5.146;2022-07-10T01:26:21;24.10;47.40
48734;DHT22;34530;52.084;5.146;2022-07-10T01:28:49;24.10;47.40
48734;DHT22;34530;52.084;5.146;2022-07-10T01:31:16;24.10;47.40
48734;DHT22;34530;52.084;5.146;2022-07-10T01:33:42;24.10;47.50
48734;DHT22;34530;52.084;5.146;2022-07-10T01:36:08;24.10;47.50
48734;DHT22;34530;52.084;5.146;2022-07-10T01:38:33;24.10;47.50
48734;DHT22;34530;52.084;5.146;2022-07-10T01:40:59;24.10;47.50
48734;DHT22;34530;52.084;5.146;2022-07-10T01:43:25;24.10;48.20
48734;DHT22;34530;52.084;5.146;2022-07-10T01:45:50;24.10;47.60
48734;DHT22;34530;52.084;5.146;2022-07-10T01:48:16;24.00;47.60
48734;DHT22;34530;52.084;5.146;2022-07-10T01:50:43;24.00;47.60
48734;DHT22;34530;52.084;5.146;2022-07-10T01:53:08;24.00;47.70
48734;DHT22;34530;52.084;5.146;2022-07-10T01:55:34;24.00;47.70
48734;DHT22;34530;52.084;5.146;2022-07-10T01:58:00;24.00;47.70
48734;DHT22;34530;52.084;5.146;2022-07-10T02:00:25;24.00;47.80
48734;DHT22;34530;52.084;5.146;2022-07-10T02:02:51;24.00;47.80
48734;DHT22;34530;52.084;5.146;2022-07-10T02:05:35;24.00;47.90
48734;DHT22;34530;52.084;5.146;2022-07-10T02:08:03;24.00;47.90
48734;DHT22;34530;52.084;5.146;2022-07-10T02:10:29;24.00;47.90
48734;DHT22;34530;52.084;5.146;2022-07-10T02:12:54;24.00;47.90
48734;DHT22;34530;52.084;5.146;2022-07-10T02:15:21;24.00;47.90
48734;DHT22;34530;52.084;5.146;2022-07-10T02:17:47;24.00;48.00
48734;DHT22;34530;52.084;5.146;2022-07-10T02:20:13;24.00;48.00
48734;DHT22;34530;52.084;5.146;2022-07-10T02:22:38;24.00;48.10
48734;DHT22;34530;52.084;5.146;2022-07-10T02:25:04;23.90;48.00
48734;DHT22;34530;52.084;5.146;2022-07-10T02:27:30;24.00;48.10
48734;DHT22;34530;52.084;5.146;2022-07-10T02:29:56;23.90;48.10
48734;DHT22;34530;52.084;5.146;2022-07-10T02:32:21;23.90;48.20
48734;DHT22;34530;52.084;5.146;2022-07-10T02:34:47;23.90;48.20
48734;DHT22;34530;52.084;5.146;2022-07-10T02:37:13;23.90;48.20
48734;DHT22;34530;52.084;5.146;2022-07-10T02:39:38;23.90;48.30
48734;DHT22;34530;52.084;5.146;2022-07-10T02:42:04;23.90;48.20
48734;DHT22;34530;52.084;5.146;2022-07-10T02:44:29;23.90;48.30
48734;DHT22;34530;52.084;5.146;2022-07-10T02:46:55;23.90;48.30
48734;DHT22;34530;52.084;5.146;2022-07-10T02:49:21;23.90;48.30
48734;DHT22;34530;52.084;5.146;2022-07-10T02:51:46;23.80;48.30
48734;DHT22;34530;52.084;5.146;2022-07-10T02:54:12;23.80;48.30
48734;DHT22;34530;52.084;5.146;2022-07-10T02:56:37;23.80;48.40
48734;DHT22;34530;52.084;5.146;2022-07-10T02:59:03;23.80;48.40
48734;DHT22;34530;52.084;5.146;2022-07-10T03:01:29;23.80;48.50
48734;DHT22;34530;52.084;5.146;2022-07-10T03:03:54;23.80;48.50
48734;DHT22;34530;52.084;5.146;2022-07-10T03:06:20;23.80;48.50
48734;DHT22;34530;52.084;5.146;2022-07-10T03:08:46;23.80;48.60
48734;DHT22;34530;52.084;5.146;2022-07-10T03:11:11;23.80;49.20
48734;DHT22;34530;52.084;5.146;2022-07-10T03:13:37;23.80;48.60
48734;DHT22;34530;52.084;5.146;2022-07-10T03:16:02;23.80;48.70
48734;DHT22;34530;52.084;5.146;2022-07-10T03:18:28;23.80;48.70
48734;DHT22;34530;52.084;5.146;2022-07-10T03:20:54;23.80;48.70
48734;DHT22;34530;52.084;5.146;2022-07-10T03:23:19;23.70;48.60
48734;DHT22;34530;52.084;5.146;2022-07-10T03:25:45;23.70;48.60
48734;DHT22;34530;52.084;5.146;2022-07-10T03:28:10;23.70;48.70
48734;DHT22;34530;52.084;5.146;2022-07-10T03:30:36;23.70;48.70
48734;DHT22;34530;52.084;5.146;2022-07-10T03:33:02;23.70;48.70
48734;DHT22;34530;52.084;5.146;2022-07-10T03:35:29;23.70;48.70
48734;DHT22;34530;52.084;5.146;2022-07-10T03:37:57;23.70;48.70
48734;DHT22;34530;52.084;5.146;2022-07-10T03:40:23;23.70;48.80
48734;DHT22;34530;52.084;5.146;2022-07-10T03:42:49;23.70;48.80
48734;DHT22;34530;52.084;5.146;2022-07-10T03:45:15;23.70;48.90
48734;DHT22;34530;52.084;5.146;2022-07-10T03:47:40;23.70;48.90
48734;DHT22;34530;52.084;5.146;2022-07-10T03:50:06;23.70;48.90
48734;DHT22;34530;52.084;5.146;2022-07-10T03:52:32;23.70;48.90
48734;DHT22;34530;52.084;5.146;2022-07-10T03:54:57;23.70;48.90
48734;DHT22;34530;52.084;5.146;2022-07-10T03:57:23;23.70;48.90
48734;DHT22;34530;52.084;5.146;2022-07-10T04:00:08;23.70;49.00
48734;DHT22;34530;52.084;5.146;2022-07-10T04:02:33;23.60;48.90
48734;DHT22;34530;52.084;5.146;2022-07-10T04:04:59;23.60;49.00
48734;DHT22;34530;52.084;5.146;2022-07-10T04:07:25;23.70;49.00
48734;DHT22;34530;52.084;5.146;2022-07-10T04:09:50;23.60;49.00
48734;DHT22;34530;52.084;5.146;2022-07-10T04:12:16;23.60;49.00
48734;DHT22;34530;52.084;5.146;2022-07-10T04:14:41;23.60;49.00
48734;DHT22;34530;52.084;5.146;2022-07-10T04:17:07;23.60;49.00
48734;DHT22;34530;52.084;5.146;2022-07-10T04:19:34;23.60;49.00
48734;DHT22;34530;52.084;5.146;2022-07-10T04:21:59;23.60;49.10
48734;DHT22;34530;52.084;5.146;2022-07-10T04:24:25;23.60;49.10
48734;DHT22;34530;52.084;5.146;2022-07-10T04:26:51;23.60;49.10
48734;DHT22;34530;52.084;5.146;2022-07-10T04:29:16;23.60;49.10
48734;DHT22;34530;52.084;5.146;2022-07-10T04:31:42;23.50;49.00
48734;DHT22;34530;52.084;5.146;2022-07-10T04:34:07;23.50;49.10
48734;DHT22;34530;52.084;5.146;2022-07-10T04:36:33;23.50;49.10
48734;DHT22;34530;52.084;5.146;2022-07-10T04:38:58;23.50;49.10
48734;DHT22;34530;52.084;5.146;2022-07-10T04:41:24;23.50;49.20
48734;DHT22;34530;52.084;5.146;2022-07-10T04:43:49;23.50;49.20
48734;DHT22;34530;52.084;5.146;2022-07-10T04:46:15;23.50;49.20
48734;DHT22;34530;52.084;5.146;2022-07-10T04:48:41;23.50;49.20
48734;DHT22;34530;52.084;5.146;2022-07-10T04:51:06;23.50;49.20
48734;DHT22;34530;52.084;5.146;2022-07-10T04:53:32;23.50;49.30
48734;DHT22;34530;52.084;5.146;2022-07-10T04:55:57;23.50;49.30
48734;DHT22;34530;52.084;5.146;2022-07-10T04:58:23;23.50;49.40
48734;DHT22;34530;52.084;5.146;2022-07-10T05:00:49;23.50;49.40
48734;DHT22;34530;52.084;5.146;2022-07-10T05:03:15;23.50;49.40
48734;DHT22;34530;52.084;5.146;2022-07-10T05:05:41;23.40;49.40
48734;DHT22;34530;52.084;5.146;2022-07-10T05:08:06;23.50;49.50
48734;DHT22;34530;52.084;5.146;2022-07-10T05:10:32;23.40;49.50
48734;DHT22;34530;52.084;5.146;2022-07-10T05:12:57;23.40;49.50
48734;DHT22;34530;52.084;5.146;2022-07-10T05:15:23;23.40;49.60
48734;DHT22;34530;52.084;5.146;2022-07-10T05:17:49;23.40;49.70
48734;DHT22;34530;52.084;5.146;2022-07-10T05:20:14;23.40;49.70
48734;DHT22;34530;52.084;5.146;2022-07-10T05:22:40;23.40;49.80
48734;DHT22;34530;52.084;5.146;2022-07-10T05:25:05;23.40;49.80
48734;DHT22;34530;52.084;5.146;2022-07-10T05:27:31;23.40;49.80
48734;DHT22;34530;52.084;5.146;2022-07-10T05:29:57;23.40;49.90
48734;DHT22;34530;52.084;5.146;2022-07-10T05:32:22;23.40;49.90
48734;DHT22;34530;52.084;5.146;2022-07-10T05:34:48;23.30;49.90
48734;DHT22;34530;52.084;5.146;2022-07-10T05:37:13;23.40;50.00
48734;DHT22;34530;52.084;5.146;2022-07-10T05:39:39;23.30;49.90
48734;DHT22;34530;52.084;5.146;2022-07-10T05:42:05;23.40;50.10
48734;DHT22;34530;52.084;5.146;2022-07-10T05:44:30;23.30;50.00
48734;DHT22;34530;52.084;5.146;2022-07-10T05:46:56;23.30;50.10
48734;DHT22;34530;52.084;5.146;2022-07-10T05:49:21;23.30;50.10
48734;DHT22;34530;52.084;5.146;2022-07-10T05:51:47;23.30;50.20
48734;DHT22;34530;52.084;5.146;2022-07-10T05:54:13;23.30;50.30
48734;DHT22;34530;52.084;5.146;2022-07-10T05:56:38;23.30;50.40
48734;DHT22;34530;52.084;5.146;2022-07-10T05:59:04;23.30;50.50
48734;DHT22;34530;52.084;5.146;2022-07-10T06:01:29;23.30;50.60
48734;DHT22;34530;52.084;5.146;2022-07-10T06:03:55;23.30;50.60
48734;DHT22;34530;52.084;5.146;2022-07-10T06:06:21;23.30;50.60
48734;DHT22;34530;52.084;5.146;2022-07-10T06:08:46;23.30;50.70
48734;DHT22;34530;52.084;5.146;2022-07-10T06:11:12;23.30;50.70
48734;DHT22;34530;52.084;5.146;2022-07-10T06:13:38;23.30;50.70
48734;DHT22;34530;52.084;5.146;2022-07-10T06:16:04;23.30;50.70
48734;DHT22;34530;52.084;5.146;2022-07-10T06:18:33;23.30;50.70
48734;DHT22;34530;52.084;5.146;2022-07-10T06:20:59;23.30;50.70
48734;DHT22;34530;52.084;5.146;2022-07-10T06:23:24;23.20;50.70
48734;DHT22;34530;52.084;5.146;2022-07-10T06:25:50;23.20;50.80
48734;DHT22;34530;52.084;5.146;2022-07-10T06:28:16;23.20;50.80
48734;DHT22;34530;52.084;5.146;2022-07-10T06:30:42;23.20;50.80
48734;DHT22;34530;52.084;5.146;2022-07-10T06:33:08;23.20;50.80
48734;DHT22;34530;52.084;5.146;2022-07-10T06:35:34;23.20;50.80
48734;DHT22;34530;52.084;5.146;2022-07-10T06:37:59;23.20;50.80
48734;DHT22;34530;52.084;5.146;2022-07-10T06:40:25;23.20;50.80
48734;DHT22;34530;52.084;5.146;2022-07-10T06:42:51;23.20;50.90
48734;DHT22;34530;52.084;5.146;2022-07-10T06:45:17;23.20;50.90
48734;DHT22;34530;52.084;5.146;2022-07-10T06:47:43;23.20;50.90
48734;DHT22;34530;52.084;5.146;2022-07-10T06:50:28;23.20;51.10
48734;DHT22;34530;52.084;5.146;2022-07-10T06:52:58;23.20;51.20
48734;DHT22;34530;52.084;5.146;2022-07-10T06:55:24;23.20;51.20
48734;DHT22;34530;52.084;5.146;2022-07-10T06:57:50;23.20;51.20
48734;DHT22;34530;52.084;5.146;2022-07-10T07:00:16;23.20;51.30
48734;DHT22;34530;52.084;5.146;2022-07-10T07:02:42;23.20;51.40
48734;DHT22;34530;52.084;5.146;2022-07-10T07:05:08;23.20;51.30
48734;DHT22;34530;52.084;5.146;2022-07-10T07:07:34;23.20;51.40
48734;DHT22;34530;52.084;5.146;2022-07-10T07:10:01;23.20;51.30
48734;DHT22;34530;52.084;5.146;2022-07-10T07:12:27;23.10;51.40
48734;DHT22;34530;52.084;5.146;2022-07-10T07:14:52;23.10;51.50
48734;DHT22;34530;52.084;5.146;2022-07-10T07:17:18;23.10;51.60
48734;DHT22;34530;52.084;5.146;2022-07-10T07:19:48;23.10;51.60
48734;DHT22;34530;52.084;5.146;2022-07-10T07:22:32;23.10;51.70
48734;DHT22;34530;52.084;5.146;2022-07-10T07:25:16;23.10;51.70
48734;DHT22;34530;52.084;5.146;2022-07-10T07:27:42;23.10;51.70
48734;DHT22;34530;52.084;5.146;2022-07-10T07:30:13;23.10;51.80
48734;DHT22;34530;52.084;5.146;2022-07-10T07:32:43;23.10;51.90
48734;DHT22;34530;52.084;5.146;2022-07-10T07:35:10;23.10;51.90
48734;DHT22;34530;52.084;5.146;2022-07-10T07:37:39;23.10;51.90
48734;DHT22;34530;52.084;5.146;2022-07-10T07:40:07;23.10;51.90
48734;DHT22;34530;52.084;5.146;2022-07-10T07:42:33;23.10;52.00
48734;DHT22;34530;52.084;5.146;2022-07-10T07:44:59;23.10;52.00
48734;DHT22;34530;52.084;5.146;2022-07-10T07:47:25;23.10;52.10
48734;DHT22;34530;52.084;5.146;2022-07-10T07:49:50;23.10;52.10
48734;DHT22;34530;52.084;5.146;2022-07-10T07:52:16;23.10;52.10
48734;DHT22;34530;52.084;5.146;2022-07-10T07:54:42;23.10;52.20
48734;DHT22;34530;52.084;5.146;2022-07-10T07:57:07;23.10;53.00
48734;DHT22;34530;52.084;5.146;2022-07-10T07:59:34;23.10;52.40
48734;DHT22;34530;52.084;5.146;2022-07-10T08:02:00;23.00;52.30
48734;DHT22;34530;52.084;5.146;2022-07-10T08:04:26;23.00;52.30
48734;DHT22;34530;52.084;5.146;2022-07-10T08:06:51;23.10;52.40
48734;DHT22;34530;52.084;5.146;2022-07-10T08:09:19;23.00;52.40
48734;DHT22;34530;52.084;5.146;2022-07-10T08:11:45;23.00;52.50
48734;DHT22;34530;52.084;5.146;2022-07-10T08:14:12;23.00;52.50
48734;DHT22;34530;52.084;5.146;2022-07-10T08:16:37;23.00;52.50
48734;DHT22;34530;52.084;5.146;2022-07-10T08:19:03;23.10;52.50
48734;DHT22;34530;52.084;5.146;2022-07-10T08:21:29;23.00;52.40
48734;DHT22;34530;52.084;5.146;2022-07-10T08:23:55;23.00;52.50
48734;DHT22;34530;52.084;5.146;2022-07-10T08:26:21;23.00;52.50
48734;DHT22;34530;52.084;5.146;2022-07-10T08:28:47;23.00;52.50
48734;DHT22;34530;52.084;5.146;2022-07-10T08:31:13;23.00;52.50
48734;DHT22;34530;52.084;5.146;2022-07-10T08:33:38;23.10;52.50
48734;DHT22;34530;52.084;5.146;2022-07-10T08:36:04;23.00;52.50
48734;DHT22;34530;52.084;5.146;2022-07-10T08:38:30;23.00;52.50
48734;DHT22;34530;52.084;5.146;2022-07-10T08:40:56;23.00;52.50
48734;DHT22;34530;52.084;5.146;2022-07-10T08:43:23;23.10;52.50
48734;DHT22;34530;52.084;5.146;2022-07-10T08:45:51;23.00;52.50
48734;DHT22;34530;52.084;5.146;2022-07-10T08:48:22;23.00;52.50
48734;DHT22;34530;52.084;5.146;2022-07-10T08:50:48;23.10;52.60
48734;DHT22;34530;52.084;5.146;2022-07-10T08:53:28;23.00;52.50
48734;DHT22;34530;52.084;5.146;2022-07-10T08:55:55;23.10;52.60
48734;DHT22;34530;52.084;5.146;2022-07-10T08:58:22;23.10;52.70
48734;DHT22;34530;52.084;5.146;2022-07-10T09:00:48;23.10;52.80
48734;DHT22;34530;52.084;5.146;2022-07-10T09:03:14;23.10;52.80
48734;DHT22;34530;52.084;5.146;2022-07-10T09:05:39;23.10;52.80
48734;DHT22;34530;52.084;5.146;2022-07-10T09:08:24;23.10;52.70
48734;DHT22;34530;52.084;5.146;2022-07-10T09:10:50;23.10;52.70
48734;DHT22;34530;52.084;5.146;2022-07-10T09:13:16;23.00;52.70
48734;DHT22;34530;52.084;5.146;2022-07-10T09:15:48;23.00;52.60
48734;DHT22;34530;52.084;5.146;2022-07-10T09:18:18;23.00;52.70
48734;DHT22;34530;52.084;5.146;2022-07-10T09:20:45;23.00;52.70
48734;DHT22;34530;52.084;5.146;2022-07-10T09:23:21;23.00;52.80
48734;DHT22;34530;52.084;5.146;2022-07-10T09:25:49;23.10;52.90
48734;DHT22;34530;52.084;5.146;2022-07-10T09:28:24;23.00;52.90
48734;DHT22;34530;52.084;5.146;2022-07-10T09:30:50;23.00;52.90
48734;DHT22;34530;52.084;5.146;2022-07-10T09:35:58;23.00;53.00
48734;DHT22;34530;52.084;5.146;2022-07-10T09:41:15;23.00;53.10
48734;DHT22;34530;52.084;5.146;2022-07-10T09:43:48;23.00;53.20
48734;DHT22;34530;52.084;5.146;2022-07-10T09:46:15;23.00;53.20
48734;DHT22;34530;52.084;5.146;2022-07-10T09:48:40;23.00;53.30
48734;DHT22;34530;52.084;5.146;2022-07-10T09:51:10;23.00;53.30
48734;DHT22;34530;52.084;5.146;2022-07-10T09:53:44;23.00;53.40
48734;DHT22;34530;52.084;5.146;2022-07-10T09:56:11;23.00;53.40
48734;DHT22;34530;52.084;5.146;2022-07-10T09:58:38;23.00;53.40
48734;DHT22;34530;52.084;5.146;2022-07-10T10:01:06;23.00;53.50
48734;DHT22;34530;52.084;5.146;2022-07-10T10:03:38;23.00;53.50
48734;DHT22;34530;52.084;5.146;2022-07-10T10:06:11;23.00;53.50
48734;DHT22;34530;52.084;5.146;2022-07-10T10:08:58;23.00;53.60
48734;DHT22;34530;52.084;5.146;2022-07-10T10:11:27;23.00;53.50
48734;DHT22;34530;52.084;5.146;2022-07-10T10:13:53;23.00;53.60
48734;DHT22;34530;52.084;5.146;2022-07-10T10:16:19;23.00;53.50
48734;DHT22;34530;52.084;5.146;2022-07-10T10:18:46;23.10;53.60
48734;DHT22;34530;52.084;5.146;2022-07-10T10:21:31;23.00;53.60
48734;DHT22;34530;52.084;5.146;2022-07-10T10:23:58;23.00;53.50
48734;DHT22;34530;52.084;5.146;2022-07-10T10:26:25;23.00;53.50
48734;DHT22;34530;52.084;5.146;2022-07-10T10:28:52;23.10;53.60
48734;DHT22;34530;52.084;5.146;2022-07-10T10:31:24;23.10;53.60
48734;DHT22;34530;52.084;5.146;2022-07-10T10:33:55;23.10;53.50
48734;DHT22;34530;52.084;5.146;2022-07-10T10:39:12;23.10;53.40
48734;DHT22;34530;52.084;5.146;2022-07-10T10:49:17;23.10;53.40
48734;DHT22;34530;52.084;5.146;2022-07-10T10:52:04;23.10;53.50
48734;DHT22;34530;52.084;5.146;2022-07-10T10:57:23;23.10;53.40
48734;DHT22;34530;52.084;5.146;2022-07-10T11:00:04;23.10;53.50
48734;DHT22;34530;52.084;5.146;2022-07-10T11:02:35;23.10;53.40
48734;DHT22;34530;52.084;5.146;2022-07-10T11:07:52;23.10;53.30
48734;DHT22;34530;52.084;5.146;2022-07-10T11:10:32;23.10;53.20
48734;DHT22;34530;52.084;5.146;2022-07-10T11:12:58;23.10;53.10
48734;DHT22;34530;52.084;5.146;2022-07-10T11:15:26;23.10;53.00
48734;DHT22;34530;52.084;5.146;2022-07-10T11:17:52;23.10;53.00
48734;DHT22;34530;52.084;5.146;2022-07-10T11:20:19;23.10;52.90
48734;DHT22;34530;52.084;5.146;2022-07-10T11:26:05;23.20;52.80
48734;DHT22;34530;52.084;5.146;2022-07-10T11:31:16;23.20;52.70
48734;DHT22;34530;52.084;5.146;2022-07-10T11:33:44;23.20;52.70
48734;DHT22;34530;52.084;5.146;2022-07-10T11:36:16;23.20;52.60
48734;DHT22;34530;52.084;5.146;2022-07-10T11:38:42;23.20;52.60
48734;DHT22;34530;52.084;5.146;2022-07-10T11:41:13;23.20;52.60
48734;DHT22;34530;52.084;5.146;2022-07-10T11:43:54;23.20;52.50
48734;DHT22;34530;52.084;5.146;2022-07-10T11:46:22;23.20;52.50
48734;DHT22;34530;52.084;5.146;2022-07-10T11:48:49;23.20;52.50
48734;DHT22;34530;52.084;5.146;2022-07-10T11:54:01;23.30;52.40
48734;DHT22;34530;52.084;5.146;2022-07-10T11:56:29;23.30;52.30
48734;DHT22;34530;52.084;5.146;2022-07-10T11:59:06;23.20;52.20
48734;DHT22;34530;52.084;5.146;2022-07-10T12:01:34;23.20;52.10
48734;DHT22;34530;52.084;5.146;2022-07-10T12:04:04;23.30;52.00
48734;DHT22;34530;52.084;5.146;2022-07-10T12:06:32;23.30;51.80
48734;DHT22;34530;52.084;5.146;2022-07-10T12:09:11;23.30;51.70
48734;DHT22;34530;52.084;5.146;2022-07-10T12:11:38;23.30;51.60
48734;DHT22;34530;52.084;5.146;2022-07-10T12:14:18;23.30;51.50
48734;DHT22;34530;52.084;5.146;2022-07-10T12:16:52;23.30;51.40
48734;DHT22;34530;52.084;5.146;2022-07-10T12:19:23;23.30;51.30
48734;DHT22;34530;52.084;5.146;2022-07-10T12:21:49;23.30;51.80
48734;DHT22;34530;52.084;5.146;2022-07-10T12:24:18;23.30;51.20
48734;DHT22;34530;52.084;5.146;2022-07-10T12:26:45;23.30;51.10
48734;DHT22;34530;52.084;5.146;2022-07-10T12:31:43;23.30;51.00
48734;DHT22;34530;52.084;5.146;2022-07-10T12:34:10;23.30;51.00
48734;DHT22;34530;52.084;5.146;2022-07-10T12:39:11;23.40;51.00
48734;DHT22;34530;52.084;5.146;2022-07-10T12:41:59;23.40;50.90
48734;DHT22;34530;52.084;5.146;2022-07-10T12:44:44;23.40;50.90
48734;DHT22;34530;52.084;5.146;2022-07-10T12:47:17;23.40;50.90
48734;DHT22;34530;52.084;5.146;2022-07-10T12:49:57;23.40;51.00
48734;DHT22;34530;52.084;5.146;2022-07-10T12:55:13;23.40;50.90
48734;DHT22;34530;52.084;5.146;2022-07-10T12:58:05;23.40;50.80
48734;DHT22;34530;52.084;5.146;2022-07-10T13:00:33;23.40;50.80
48734;DHT22;34530;52.084;5.146;2022-07-10T13:03:08;23.40;50.90
48734;DHT22;34530;52.084;5.146;2022-07-10T13:05:39;23.40;50.90
48734;DHT22;34530;52.084;5.146;2022-07-10T13:10:35;23.40;50.90
48734;DHT22;34530;52.084;5.146;2022-07-10T13:13:05;23.40;50.90
48734;DHT22;34530;52.084;5.146;2022-07-10T13:15:31;23.50;50.90
48734;DHT22;34530;52.084;5.146;2022-07-10T13:17:59;23.50;51.00
48734;DHT22;34530;52.084;5.146;2022-07-10T13:20:25;23.50;51.00
48734;DHT22;34530;52.084;5.146;2022-07-10T13:22:51;23.50;51.00
48734;DHT22;34530;52.084;5.146;2022-07-10T13:25:16;23.50;51.10
48734;DHT22;34530;52.084;5.146;2022-07-10T13:27:42;23.50;51.10
48734;DHT22;34530;52.084;5.146;2022-07-10T13:30:08;23.50;51.10
48734;DHT22;34530;52.084;5.146;2022-07-10T13:32:34;23.50;51.10
48734;DHT22;34530;52.084;5.146;2022-07-10T13:34:59;23.50;51.20
48734;DHT22;34530;52.084;5.146;2022-07-10T13:37:25;23.50;51.30
48734;DHT22;34530;52.084;5.146;2022-07-10T13:39:51;23.50;51.30
48734;DHT22;34530;52.084;5.146;2022-07-10T13:42:16;23.50;51.40
48734;DHT22;34530;52.084;5.146;2022-07-10T13:44:42;23.50;51.50
48734;DHT22;34530;52.084;5.146;2022-07-10T13:47:08;23.60;51.50
48734;DHT22;34530;52.084;5.146;2022-07-10T13:49:34;23.60;51.60
48734;DHT22;34530;52.084;5.146;2022-07-10T13:51:59;23.60;51.80
48734;DHT22;34530;52.084;5.146;2022-07-10T13:54:25;23.60;52.00
48734;DHT22;34530;52.084;5.146;2022-07-10T13:56:51;23.70;52.30
48734;DHT22;34530;52.084;5.146;2022-07-10T13:59:17;23.60;52.40
48734;DHT22;34530;52.084;5.146;2022-07-10T14:01:42;23.70;52.60
48734;DHT22;34530;52.084;5.146;2022-07-10T14:04:08;23.70;52.60
48734;DHT22;34530;52.084;5.146;2022-07-10T14:06:33;23.70;52.70
48734;DHT22;34530;52.084;5.146;2022-07-10T14:08:59;23.70;53.50
48734;DHT22;34530;52.084;5.146;2022-07-10T14:11:25;23.70;53.80
48734;DHT22;34530;52.084;5.146;2022-07-10T14:13:50;23.70;54.00
48734;DHT22;34530;52.084;5.146;2022-07-10T14:16:16;23.70;54.20
48734;DHT22;34530;52.084;5.146;2022-07-10T14:18:41;23.70;54.20
48734;DHT22;34530;52.084;5.146;2022-07-10T14:21:11;23.70;54.10
48734;DHT22;34530;52.084;5.146;2022-07-10T14:23:40;23.80;54.10
48734;DHT22;34530;52.084;5.146;2022-07-10T14:26:11;23.80;54.00
48734;DHT22;34530;52.084;5.146;2022-07-10T14:28:37;23.80;53.90
48734;DHT22;34530;52.084;5.146;2022-07-10T14:31:04;23.80;53.90
48734;DHT22;34530;52.084;5.146;2022-07-10T14:33:31;23.80;54.00
48734;DHT22;34530;52.084;5.146;2022-07-10T14:35:57;23.80;54.00
48734;DHT22;34530;52.084;5.146;2022-07-10T14:38:23;23.80;54.00
48734;DHT22;34530;52.084;5.146;2022-07-10T14:40:48;23.80;54.00
48734;DHT22;34530;52.084;5.146;2022-07-10T14:43:17;23.80;54.10
48734;DHT22;34530;52.084;5.146;2022-07-10T14:45:45;23.80;54.10
48734;DHT22;34530;52.084;5.146;2022-07-10T14:48:11;23.80;54.10
48734;DHT22;34530;52.084;5.146;2022-07-10T14:50:37;23.80;54.20
48734;DHT22;34530;52.084;5.146;2022-07-10T14:53:02;23.90;54.20
48734;DHT22;34530;52.084;5.146;2022-07-10T14:55:28;23.90;54.20
48734;DHT22;34530;52.084;5.146;2022-07-10T14:57:53;23.90;54.10
48734;DHT22;34530;52.084;5.146;2022-07-10T15:00:19;23.90;54.20
48734;DHT22;34530;52.084;5.146;2022-07-10T15:02:45;23.90;54.80
48734;DHT22;34530;52.084;5.146;2022-07-10T15:05:11;23.90;54.10
48734;DHT22;34530;52.084;5.146;2022-07-10T15:07:36;23.90;54.10
48734;DHT22;34530;52.084;5.146;2022-07-10T15:10:02;23.90;54.10
48734;DHT22;34530;52.084;5.146;2022-07-10T15:12:28;23.90;54.20
48734;DHT22;34530;52.084;5.146;2022-07-10T15:14:56;23.90;54.10
48734;DHT22;34530;52.084;5.146;2022-07-10T15:17:22;24.00;54.20
48734;DHT22;34530;52.084;5.146;2022-07-10T15:19:48;24.00;54.10
48734;DHT22;34530;52.084;5.146;2022-07-10T15:22:13;24.00;54.20
48734;DHT22;34530;52.084;5.146;2022-07-10T15:24:39;24.00;54.30
48734;DHT22;34530;52.084;5.146;2022-07-10T15:27:06;24.00;54.40
48734;DHT22;34530;52.084;5.146;2022-07-10T15:29:32;24.00;54.40
48734;DHT22;34530;52.084;5.146;2022-07-10T15:31:57;24.00;54.30
48734;DHT22;34530;52.084;5.146;2022-07-10T15:34:23;24.00;54.20
48734;DHT22;34530;52.084;5.146;2022-07-10T15:36:49;24.00;54.20
48734;DHT22;34530;52.084;5.146;2022-07-10T15:39:14;24.00;54.20
48734;DHT22;34530;52.084;5.146;2022-07-10T15:41:40;24.00;54.20
48734;DHT22;34530;52.084;5.146;2022-07-10T15:44:10;24.00;54.10
48734;DHT22;34530;52.084;5.146;2022-07-10T15:46:36;24.00;54.10
48734;DHT22;34530;52.084;5.146;2022-07-10T15:49:02;24.00;54.20
48734;DHT22;34530;52.084;5.146;2022-07-10T15:51:29;24.00;54.30
48734;DHT22;34530;52.084;5.146;2022-07-10T15:53:56;24.00;54.40
48734;DHT22;34530;52.084;5.146;2022-07-10T15:56:22;24.10;54.40
48734;DHT22;34530;52.084;5.146;2022-07-10T15:58:48;24.10;54.40
48734;DHT22;34530;52.084;5.146;2022-07-10T16:01:13;24.10;54.40
48734;DHT22;34530;52.084;5.146;2022-07-10T16:03:44;24.10;54.30
48734;DHT22;34530;52.084;5.146;2022-07-10T16:06:12;24.10;54.20
48734;DHT22;34530;52.084;5.146;2022-07-10T16:08:38;24.10;54.20
48734;DHT22;34530;52.084;5.146;2022-07-10T16:11:04;24.10;54.40